Terminal Aerodrome Forecast
Issued by NWS Brownsville, TX

Home | Current Version | Previous Version | Text Only | Print | Product List | Glossary On
Versions: 1 2 3 4 5 6 7 8 9 10 11 12 13 14 15 16 17 18
229
FTUS44 KBRO 201138
TAFHRL
TAF
KHRL 201138Z 2012/2112 07005KT P6SM SCT023
      TEMPO 2012/2016 BKN025
     FM201800 12012G18KT P6SM BKN035
     FM210300 14010G16KT P6SM BKN025
     FM210600 14011G16KT P6SM BKN015=

USA.gov is the U.S. government's official web portal to all federal, state and local government web resources and services.